首页
METAR-TAF:

METAR-TAF

机场 :

朱諾, 阿拉斯加州, 美国

纬度: 58-21-17N, 经度: 134-34-34W, 海拔: 6米

当前天气观测

该预报发布于24分钟前的19:53 UTC
风速4节,风向多变
温度 3°C
湿度 87%
气压 1015 hPa
能見度: 16.1公里
少量云层高于800英尺
多云层高于3400英尺
多云层高于6000英尺
阴天层高于18000英尺

METAR: PAJN 191953Z VRB04KT 10SM FEW008 BKN034 BKN060 OVC180 03/01 A2997 RMK AO2 RAE50 SLP149 P0001 T00280011

时间: 11:17 (20:17 UTC)

预报

该预报发布于2小时和40分钟前的17:37 UTC
预报有效从19日的 18点(UTC)到 20日的 18点(UTC)
风速15节,风向东转东南,有时为25节阵风
能見度: 9.7公里
阴天层高于2500英尺
小雨, 雪, 轻雾

TAF: PAJN 191737Z 1918/2018 11015G25KT 6SM -RASN BR OVC025

超过4000个机场的气象观测和天气预报(METAR&TAF报告)。

可查询的气象台以黄色和红色小点在地图上表示。

将鼠标移到小点上方,可查看气象台名称。

然后点击查看天气观测和预报。

如需切换地图:点击带黑十字的绿色按钮放大地图;点击带横线的绿色按钮缩小地图;或者点击绿色箭头查看邻近地区的地图。


METAR-TAF: